Bastwell, United Kingdom
Current Conditions -  °F | °C
As of 2:50 PM on Wednesday 22 Oct 2014 (Local Time) from EGNO Reporting Station
Broken Clouds Broken Clouds  
Wind Chill: 52°   Ceiling: 1900
Heat Index: 52°   Visibility: 6mi
Dew Point: 48°   Wind: 16mph
Humidity: 88%   Direction: 260°W
Pressure: 30.15"   Gusts: NA
Location:  53.74°N, 2.47°W
Report Text: EGNO 221350Z 26014KT 9999 FEW007 SCT014 BKN019 11/09 Q1021
Loading
Personal Weather Stations






























Interactive Weather Map New forecast layout! Learn more

10-Day Weather Forecast

Advertisements
Track Severe Weather on mobile